Time;durP1;ratioP1;P1;durP2;ratioP2;P2;SDS_P1;SDS_P2;PMS_P1;PMS_P2;Temp;Humidity;BMP_temperature;BMP_pressure;BME280_temperature;BME280_humidity;BME280_pressure;Samples;Min_cycle;Max_cycle;Signal;HPM_P1;HPM_P2
2021/05/12 00:02:05;;;;;;;7.17;3.33;;;9.10;99.90;;;;;;5090704;28;20254;-85
2021/05/12 00:04:31;;;;;;;7.87;3.77;;;9.00;99.90;;;;;;5091144;28;20581;-83
2021/05/12 00:06:58;;;;;;;4.90;2.73;;;9.10;99.90;;;;;;5090278;28;20280;-81
2021/05/12 00:09:24;;;;;;;7.37;2.47;;;9.10;99.90;;;;;;5090835;28;20650;-83
2021/05/12 00:11:51;;;;;;;4.23;2.97;;;9.10;99.90;;;;;;5090795;28;20209;-83
2021/05/12 00:14:17;;;;;;;2.77;2.40;;;9.00;99.90;;;;;;5091320;28;20210;-85
2021/05/12 00:16:45;;;;;;;3.57;2.13;;;9.00;99.90;;;;;;5090912;28;20673;-82
2021/05/12 00:19:11;;;;;;;3.70;2.57;;;8.90;99.90;;;;;;5090623;28;20259;-83
2021/05/12 00:21:42;;;;;;;4.67;2.97;;;8.90;99.90;;;;;;5090615;28;20206;-84
2021/05/12 00:24:09;;;;;;;6.97;3.30;;;8.90;99.90;;;;;;5090323;28;20209;-85
2021/05/12 00:26:37;;;;;;;4.77;2.67;;;8.80;99.90;;;;;;5089218;28;20201;-84
2021/05/12 00:29:05;;;;;;;6.73;2.73;;;8.80;99.90;;;;;;5062770;28;20206;-83
2021/05/12 00:31:32;;;;;;;6.13;3.17;;;8.80;99.90;;;;;;5070567;28;20209;-84
2021/05/12 00:33:59;;;;;;;6.87;2.83;;;8.80;99.90;;;;;;5070633;28;20207;-84
2021/05/12 00:36:26;;;;;;;3.23;2.20;;;8.80;99.90;;;;;;5070045;28;20209;-84
2021/05/12 00:38:53;;;;;;;6.57;2.50;;;8.70;99.90;;;;;;5070014;28;20283;-83
2021/05/12 00:41:19;;;;;;;6.03;2.17;;;8.70;99.90;;;;;;5070332;28;20697;-75
2021/05/12 00:43:46;;;;;;;8.17;3.00;;;8.60;99.90;;;;;;5070766;28;20206;-83
2021/05/12 00:46:12;;;;;;;4.37;2.03;;;8.60;99.90;;;;;;5070114;28;20214;-87
2021/05/12 00:48:39;;;;;;;2.83;2.13;;;8.70;99.90;;;;;;5071031;28;20673;-85
2021/05/12 00:51:06;;;;;;;5.70;3.13;;;8.60;99.90;;;;;;5069596;28;20237;-82
2021/05/12 00:53:33;;;;;;;3.10;2.23;;;8.60;99.90;;;;;;5070266;28;20731;-82
2021/05/12 00:56:00;;;;;;;5.83;2.50;;;8.60;99.90;;;;;;5069914;28;20214;-81
2021/05/12 00:58:27;;;;;;;4.43;2.13;;;8.60;99.90;;;;;;5071836;28;20317;-83
2021/05/12 01:00:53;;;;;;;4.80;1.73;;;8.60;99.90;;;;;;5073462;28;20206;-81
2021/05/12 01:03:20;;;;;;;7.47;2.57;;;8.60;99.90;;;;;;5073592;28;20566;-74
2021/05/12 01:06:02;;;;;;;7.33;2.10;;;8.60;99.90;;;;;;5074171;28;20692;-82
2021/05/12 01:08:30;;;;;;;2.40;2.00;;;8.50;99.90;;;;;;5072448;28;20214;-83
2021/05/12 01:10:57;;;;;;;2.80;1.90;;;8.50;99.90;;;;;;5073658;28;20206;-82
2021/05/12 01:13:25;;;;;;;6.77;2.27;;;8.50;99.90;;;;;;5073721;28;20673;-85
2021/05/12 01:15:52;;;;;;;3.77;1.37;;;8.50;99.90;;;;;;5073697;28;20596;-83
2021/05/12 01:18:20;;;;;;;3.03;2.03;;;8.40;99.90;;;;;;5074193;28;20279;-81
2021/05/12 01:20:50;;;;;;;4.70;2.27;;;8.40;99.90;;;;;;5060898;28;20207;-84
2021/05/12 01:23:18;;;;;;;4.07;2.60;;;8.30;99.90;;;;;;5074767;28;20628;-90
2021/05/12 01:25:46;;;;;;;2.73;2.30;;;8.30;99.90;;;;;;5074418;28;20210;-88
2021/05/12 01:28:13;;;;;;;3.20;2.30;;;8.30;99.90;;;;;;5073341;28;20214;-81
2021/05/12 01:30:39;;;;;;;2.70;1.70;;;8.30;99.90;;;;;;5073847;28;20264;-91
2021/05/12 01:33:07;;;;;;;3.93;2.37;;;8.30;99.90;;;;;;5073599;28;20625;-89
2021/05/12 01:35:33;;;;;;;6.93;1.80;;;8.30;99.90;;;;;;5073582;28;20217;-79
2021/05/12 01:38:01;;;;;;;4.60;2.23;;;8.30;99.90;;;;;;5073382;28;20217;-86
2021/05/12 01:40:28;;;;;;;4.57;2.00;;;8.30;99.90;;;;;;5074036;28;20292;-87
2021/05/12 01:42:55;;;;;;;4.60;2.10;;;8.30;99.90;;;;;;5073522;28;20206;-89
2021/05/12 01:45:21;;;;;;;4.60;2.07;;;8.30;99.90;;;;;;5074150;28;20210;-89
2021/05/12 01:47:48;;;;;;;9.67;2.40;;;8.30;99.90;;;;;;5073692;28;20202;-89
2021/05/12 01:50:14;;;;;;;3.07;1.90;;;8.30;99.90;;;;;;5073846;28;20210;-86
2021/05/12 01:52:42;;;;;;;3.03;2.10;;;8.20;99.90;;;;;;5073684;28;20207;-88
2021/05/12 01:55:13;;;;;;;3.97;2.50;;;8.40;99.90;;;;;;5073237;28;20206;-89
2021/05/12 01:57:40;;;;;;;2.40;1.97;;;8.40;99.90;;;;;;5073563;28;20233;-89
2021/05/12 02:00:25;;;;;;;6.97;2.57;;;8.40;99.90;;;;;;5073198;28;20241;-87
2021/05/12 02:02:52;;;;;;;4.83;1.93;;;8.40;99.90;;;;;;5073051;28;20684;-74
2021/05/12 02:05:20;;;;;;;3.57;2.10;;;8.50;99.90;;;;;;5074197;28;20213;-86
2021/05/12 02:07:48;;;;;;;6.87;2.20;;;8.60;99.90;;;;;;5073808;28;20256;-85
2021/05/12 02:10:15;;;;;;;8.80;2.43;;;8.60;99.90;;;;;;5072811;28;20210;-86
2021/05/12 02:12:42;;;;;;;3.13;2.17;;;8.60;99.90;;;;;;5073429;28;20735;-84
2021/05/12 02:15:11;;;;;;;3.27;2.63;;;8.60;99.90;;;;;;5072897;28;20202;-86
2021/05/12 02:17:37;;;;;;;6.33;2.13;;;8.50;99.90;;;;;;5073103;28;20206;-84
2021/05/12 02:20:06;;;;;;;3.57;2.30;;;8.30;99.90;;;;;;5072442;28;20226;-86
2021/05/12 02:22:32;;;;;;;4.23;2.20;;;8.50;99.90;;;;;;5073063;28;20198;-83
2021/05/12 02:24:59;;;;;;;2.00;1.57;;;8.60;99.90;;;;;;5072623;28;20263;-85
2021/05/12 02:27:26;;;;;;;3.63;2.20;;;8.50;99.90;;;;;;5072867;28;20214;-84
2021/05/12 02:29:53;;;;;;;4.27;2.13;;;8.60;99.90;;;;;;5072093;28;20583;-82
2021/05/12 02:32:20;;;;;;;5.53;2.57;;;8.60;99.90;;;;;;5072804;28;20249;-79
2021/05/12 02:34:46;;;;;;;4.07;2.83;;;8.70;99.90;;;;;;5072986;28;20206;-80
2021/05/12 02:37:13;;;;;;;2.93;2.40;;;8.50;99.90;;;;;;5071787;28;20206;-83
2021/05/12 02:39:39;;;;;;;4.73;2.60;;;8.30;99.90;;;;;;5072789;28;20241;-84
2021/05/12 02:42:06;;;;;;;6.63;2.40;;;8.40;99.90;;;;;;5072271;28;20206;-83
2021/05/12 02:44:33;;;;;;;3.17;2.17;;;8.30;99.90;;;;;;5072540;28;20202;-83
2021/05/12 02:47:00;;;;;;;5.90;2.63;;;8.30;99.90;;;;;;5072031;28;20210;-84
2021/05/12 02:49:26;;;;;;;5.57;2.47;;;8.40;99.90;;;;;;5072504;28;20206;-83
2021/05/12 02:51:53;;;;;;;4.63;2.20;;;8.30;99.90;;;;;;5071943;28;20588;-83
2021/05/12 02:54:19;;;;;;;10.23;2.67;;;8.30;99.90;;;;;;5072456;28;20634;-85
2021/05/12 02:56:46;;;;;;;3.33;2.03;;;8.20;99.90;;;;;;5072719;28;20206;-83
2021/05/12 02:59:13;;;;;;;2.80;1.87;;;8.20;99.90;;;;;;5071663;28;20598;-80
2021/05/12 03:01:40;;;;;;;9.70;2.73;;;8.20;99.90;;;;;;5071602;28;20213;-78
2021/05/12 03:04:07;;;;;;;3.27;2.10;;;8.20;99.90;;;;;;5071098;28;20263;-80
2021/05/12 03:06:33;;;;;;;6.10;2.43;;;8.20;99.90;;;;;;5071295;28;20613;-79
2021/05/12 03:09:00;;;;;;;2.57;2.10;;;8.30;99.90;;;;;;5071824;28;20202;-84
2021/05/12 03:11:26;;;;;;;3.50;1.87;;;8.30;99.90;;;;;;5071825;28;20205;-83
2021/05/12 03:13:53;;;;;;;5.97;2.40;;;8.30;99.90;;;;;;5071555;28;20209;-80
2021/05/12 03:16:19;;;;;;;5.60;2.00;;;8.30;99.90;;;;;;5071479;28;20202;-75
2021/05/12 03:18:47;;;;;;;3.00;1.60;;;8.30;99.90;;;;;;5071462;28;20777;-79
2021/05/12 03:21:13;;;;;;;4.47;2.00;;;8.30;99.90;;;;;;5070379;28;20347;-79
2021/05/12 03:23:40;;;;;;;4.70;2.00;;;8.30;99.90;;;;;;5071115;28;20214;-78
2021/05/12 03:26:06;;;;;;;5.33;1.83;;;8.30;99.90;;;;;;5071081;28;20206;-81
2021/05/12 03:28:33;;;;;;;7.53;2.07;;;8.30;99.90;;;;;;5071476;28;20213;-83
2021/05/12 03:30:59;;;;;;;3.03;2.73;;;8.40;99.90;;;;;;5070682;28;20217;-81
2021/05/12 03:33:26;;;;;;;5.87;2.40;;;8.30;99.90;;;;;;5071212;28;20217;-80
2021/05/12 03:35:53;;;;;;;6.33;1.83;;;8.40;99.90;;;;;;5071028;28;20214;-78
2021/05/12 03:38:20;;;;;;;3.00;2.00;;;8.40;99.90;;;;;;5071265;28;20206;-74
2021/05/12 03:40:46;;;;;;;2.63;2.40;;;8.40;99.90;;;;;;5071014;28;20206;-79
2021/05/12 03:43:13;;;;;;;3.67;1.77;;;8.50;99.90;;;;;;5070526;28;20210;-80
2021/05/12 03:45:39;;;;;;;4.30;1.57;;;8.50;99.90;;;;;;5070808;28;20210;-80
2021/05/12 03:48:07;;;;;;;3.53;1.90;;;8.30;99.90;;;;;;5056928;28;20209;-81
2021/05/12 03:50:34;;;;;;;3.23;1.47;;;8.20;99.90;;;;;;5071127;28;20297;-80
2021/05/12 03:53:01;;;;;;;2.00;1.57;;;8.30;99.90;;;;;;5070510;28;20210;-73
2021/05/12 03:55:28;;;;;;;3.70;1.90;;;8.30;99.90;;;;;;5070948;28;20236;-73
2021/05/12 03:57:55;;;;;;;2.87;1.37;;;8.20;99.90;;;;;;5070036;28;20206;-75
2021/05/12 04:00:22;;;;;;;2.40;1.23;;;8.20;99.90;;;;;;5070399;28;20652;-77
2021/05/12 04:02:48;;;;;;;4.17;2.63;;;8.30;99.90;;;;;;5070667;28;20673;-77
2021/05/12 04:05:16;;;;;;;9.70;2.10;;;8.20;99.90;;;;;;5070859;28;20205;-76
2021/05/12 04:07:43;;;;;;;1.90;1.43;;;8.30;99.90;;;;;;5070947;28;20206;-78
2021/05/12 04:10:12;;;;;;;2.40;1.30;;;8.30;99.90;;;;;;5070495;28;20597;-81
2021/05/12 04:12:38;;;;;;;2.53;1.30;;;8.30;99.90;;;;;;5070481;28;20202;-81
2021/05/12 04:15:07;;;;;;;4.43;2.17;;;8.30;99.90;;;;;;5069845;28;20206;-79
2021/05/12 04:17:33;;;;;;;2.83;1.93;;;8.30;99.90;;;;;;5070462;28;20207;-79
2021/05/12 04:20:00;;;;;;;1.87;1.43;;;8.50;99.90;;;;;;5070172;28;20614;-84
2021/05/12 04:22:26;;;;;;;3.20;1.43;;;8.50;99.90;;;;;;5071104;28;20272;-81
2021/05/12 04:24:53;;;;;;;2.20;1.40;;;8.50;99.90;;;;;;5069969;28;20214;-79
2021/05/12 04:27:20;;;;;;;2.77;1.50;;;8.50;99.90;;;;;;5070283;28;20285;-73
2021/05/12 04:29:47;;;;;;;5.03;1.50;;;8.50;99.90;;;;;;5070828;28;20233;-79
2021/05/12 04:32:13;;;;;;;6.40;1.77;;;8.40;99.90;;;;;;5072816;28;20202;-80
2021/05/12 04:34:40;;;;;;;2.50;2.23;;;8.30;99.90;;;;;;5077057;28;20222;-78
2021/05/12 04:37:06;;;;;;;5.50;2.43;;;8.30;99.90;;;;;;5076678;28;20240;-83
2021/05/12 04:39:33;;;;;;;4.40;1.67;;;8.10;99.90;;;;;;5077279;28;20643;-82
2021/05/12 04:41:59;;;;;;;1.37;1.27;;;8.20;99.90;;;;;;5076406;28;20605;-82
2021/05/12 04:44:27;;;;;;;3.73;1.53;;;8.40;99.90;;;;;;5076818;28;20733;-81
2021/05/12 04:46:56;;;;;;;3.57;1.57;;;8.30;99.90;;;;;;5076959;28;20331;-79
2021/05/12 04:49:22;;;;;;;3.10;1.50;;;8.30;99.90;;;;;;5077097;28;20206;-80
2021/05/12 04:51:49;;;;;;;1.67;1.30;;;8.20;99.90;;;;;;5077390;28;20297;-81
2021/05/12 04:54:15;;;;;;;3.60;1.63;;;8.20;99.90;;;;;;5076352;28;20241;-78
2021/05/12 04:56:42;;;;;;;2.37;1.57;;;8.20;99.90;;;;;;5076693;28;20216;-76
2021/05/12 04:59:09;;;;;;;2.53;1.67;;;8.30;99.90;;;;;;5076331;28;20233;-81
2021/05/12 05:01:36;;;;;;;3.17;1.67;;;8.30;99.90;;;;;;5076308;28;20213;-79
2021/05/12 05:04:04;;;;;;;3.30;1.33;;;8.40;99.90;;;;;;5076644;28;20209;-79
2021/05/12 05:06:33;;;;;;;1.60;1.50;;;8.60;99.90;;;;;;5079140;28;20209;-80
2021/05/12 05:09:00;;;;;;;3.17;1.57;;;8.50;99.90;;;;;;5066260;28;20214;-78
2021/05/12 05:11:26;;;;;;;5.37;2.47;;;8.50;99.90;;;;;;5072397;28;20697;-79
2021/05/12 05:13:53;;;;;;;3.17;1.67;;;8.60;99.90;;;;;;5068121;28;20233;-78
2021/05/12 05:16:19;;;;;;;1.87;1.27;;;8.60;99.90;;;;;;5076559;28;20673;-73
2021/05/12 05:18:48;;;;;;;2.20;1.20;;;8.80;99.90;;;;;;5076829;28;20724;-80
2021/05/12 05:21:15;;;;;;;2.97;1.50;;;8.70;99.90;;;;;;5076225;28;20657;-81
2021/05/12 05:23:42;;;;;;;3.43;1.20;;;8.80;99.90;;;;;;5076264;28;20297;-79
2021/05/12 05:26:08;;;;;;;2.60;1.47;;;9.00;99.90;;;;;;5069841;28;20206;-78
2021/05/12 05:28:35;;;;;;;2.60;1.30;;;9.10;99.90;;;;;;5076270;28;20217;-78
2021/05/12 05:31:02;;;;;;;1.43;1.30;;;9.00;99.90;;;;;;5076388;28;20268;-74
2021/05/12 05:33:29;;;;;;;2.47;1.40;;;8.90;99.90;;;;;;5076207;28;20673;-80
2021/05/12 05:35:56;;;;;;;3.53;1.87;;;9.00;99.90;;;;;;5076201;28;20712;-77
2021/05/12 05:38:24;;;;;;;4.93;1.87;;;9.10;99.90;;;;;;5076321;28;20251;-77
2021/05/12 05:40:51;;;;;;;2.30;1.63;;;9.20;99.90;;;;;;5076043;28;20206;-77
2021/05/12 05:43:18;;;;;;;1.90;1.10;;;9.20;99.90;;;;;;5075373;28;20203;-80
2021/05/12 05:45:44;;;;;;;1.93;0.90;;;9.20;99.90;;;;;;5072837;28;20725;-76
2021/05/12 05:48:11;;;;;;;1.97;1.27;;;9.30;99.90;;;;;;5072915;28;20214;-80
2021/05/12 05:50:38;;;;;;;5.40;1.37;;;9.30;99.90;;;;;;5073349;28;20218;-77
2021/05/12 05:53:05;;;;;;;1.33;1.17;;;9.40;99.90;;;;;;5072688;28;20669;-80
2021/05/12 05:55:31;;;;;;;4.63;1.67;;;9.50;99.90;;;;;;5072921;28;20259;-79
2021/05/12 05:57:58;;;;;;;5.30;1.30;;;9.50;99.90;;;;;;5072466;28;20677;-81
2021/05/12 06:00:25;;;;;;;1.70;1.27;;;9.50;99.90;;;;;;5072144;28;20324;-82
2021/05/12 06:02:51;;;;;;;3.43;1.63;;;9.50;99.90;;;;;;5069645;28;20210;-74
2021/05/12 06:05:18;;;;;;;1.53;1.20;;;9.50;99.90;;;;;;5073612;28;20247;-81
2021/05/12 06:07:45;;;;;;;1.53;1.10;;;9.60;99.90;;;;;;5073429;28;20202;-83
2021/05/12 06:10:12;;;;;;;2.07;1.13;;;9.60;99.90;;;;;;5072635;28;20652;-84
2021/05/12 06:12:39;;;;;;;3.23;1.23;;;9.70;99.90;;;;;;5073411;28;20259;-78
2021/05/12 06:15:06;;;;;;;3.70;1.20;;;9.80;99.90;;;;;;5072467;28;20214;-83
2021/05/12 06:17:33;;;;;;;6.57;1.63;;;9.80;99.90;;;;;;5073030;28;20206;-75
2021/05/12 06:19:59;;;;;;;4.10;1.93;;;9.70;99.90;;;;;;5071922;28;20256;-79
2021/05/12 06:22:26;;;;;;;2.70;1.10;;;9.80;99.90;;;;;;5073050;28;20199;-81
2021/05/12 06:24:53;;;;;;;1.70;1.27;;;9.70;99.90;;;;;;5071622;28;20218;-76
2021/05/12 06:27:21;;;;;;;2.13;1.10;;;9.70;99.90;;;;;;5072528;28;20691;-75
2021/05/12 06:29:47;;;;;;;5.07;1.30;;;9.80;99.90;;;;;;5072947;28;20202;-77
2021/05/12 06:32:15;;;;;;;4.53;1.87;;;9.80;99.90;;;;;;5071740;28;20288;-80
2021/05/12 06:34:42;;;;;;;2.83;1.40;;;9.80;99.90;;;;;;5072088;28;20210;-79
2021/05/12 06:37:09;;;;;;;2.90;1.40;;;10.00;99.90;;;;;;5071929;28;20202;-79
2021/05/12 06:39:35;;;;;;;4.77;1.40;;;9.90;99.90;;;;;;5072151;28;20272;-78
2021/05/12 06:42:01;;;;;;;2.30;1.20;;;10.00;99.90;;;;;;5071850;28;20221;-78
2021/05/12 06:44:29;;;;;;;3.77;1.90;;;10.10;99.90;;;;;;5072248;28;20198;-79
2021/05/12 06:46:55;;;;;;;1.60;1.33;;;10.10;99.90;;;;;;5071772;28;20214;-83
2021/05/12 06:49:22;;;;;;;2.97;1.27;;;10.10;99.90;;;;;;5064360;28;20199;-74
2021/05/12 06:51:49;;;;;;;3.63;1.33;;;10.30;99.90;;;;;;5063221;28;20241;-78
2021/05/12 06:54:15;;;;;;;7.73;1.77;;;10.40;99.90;;;;;;5069825;28;20324;-76
2021/05/12 06:56:42;;;;;;;4.83;1.63;;;10.70;99.90;;;;;;5069634;28;20233;-74
2021/05/12 06:59:09;;;;;;;3.00;1.90;;;10.90;99.90;;;;;;5070643;28;20255;-76
2021/05/12 07:01:36;;;;;;;3.40;1.40;;;11.10;99.90;;;;;;5070201;28;20225;-79
2021/05/12 07:04:03;;;;;;;5.23;1.47;;;11.60;99.90;;;;;;5067794;28;20210;-76
2021/05/12 07:06:29;;;;;;;3.40;1.70;;;11.60;99.90;;;;;;5060850;28;20206;-76
2021/05/12 07:08:56;;;;;;;6.50;1.77;;;11.70;99.90;;;;;;5071120;28;20206;-76
2021/05/12 07:11:23;;;;;;;4.83;1.90;;;11.70;99.90;;;;;;5071110;28;20210;-76
2021/05/12 07:13:52;;;;;;;3.47;1.57;;;11.70;99.90;;;;;;5065941;28;20285;-76
2021/05/12 07:16:18;;;;;;;3.70;1.23;;;12.00;99.90;;;;;;5071483;28;20289;-75
2021/05/12 07:18:46;;;;;;;5.37;1.77;;;12.20;99.90;;;;;;5060148;28;20233;-76
2021/05/12 07:21:12;;;;;;;4.93;1.50;;;12.00;99.90;;;;;;5065918;28;20213;-77
2021/05/12 07:23:42;;;;;;;1.80;1.30;;;11.70;99.90;;;;;;5067668;28;20689;-74
2021/05/12 07:26:09;;;;;;;2.83;1.00;;;11.70;99.90;;;;;;5063397;28;20237;-75
2021/05/12 07:28:36;;;;;;;2.53;1.73;;;11.60;99.90;;;;;;5064286;28;20293;-73
2021/05/12 07:31:02;;;;;;;3.57;0.97;;;11.50;99.90;;;;;;5069999;28;20207;-76
2021/05/12 07:33:29;;;;;;;2.70;1.10;;;11.60;99.90;;;;;;5065688;28;20206;-75
2021/05/12 07:35:57;;;;;;;2.80;1.20;;;11.90;99.90;;;;;;5070442;28;20625;-77
2021/05/12 07:38:23;;;;;;;2.60;1.40;;;12.00;99.90;;;;;;5071024;28;20677;-77
2021/05/12 07:40:50;;;;;;;6.33;1.27;;;12.00;99.90;;;;;;5071126;28;20252;-74
2021/05/12 07:43:16;;;;;;;2.13;1.40;;;12.00;99.90;;;;;;5066757;28;20211;-76
2021/05/12 07:45:44;;;;;;;3.13;1.90;;;12.10;99.90;;;;;;5063887;28;20219;-75
2021/05/12 07:48:12;;;;;;;3.20;1.60;;;12.20;99.90;;;;;;5069497;28;20210;-75
2021/05/12 07:50:39;;;;;;;8.20;1.63;;;12.30;99.90;;;;;;5068933;28;20210;-77
2021/05/12 07:53:08;;;;;;;4.60;1.63;;;12.40;99.90;;;;;;5070166;28;20202;-77
2021/05/12 07:55:35;;;;;;;2.80;1.17;;;12.70;99.90;;;;;;5069928;28;20673;-77
2021/05/12 07:58:03;;;;;;;3.30;1.27;;;12.60;99.90;;;;;;5069897;28;20198;-76
2021/05/12 08:00:31;;;;;;;6.03;1.60;;;12.90;99.90;;;;;;5070753;28;20234;-79
2021/05/12 08:02:58;;;;;;;3.30;1.83;;;13.00;99.90;;;;;;5067658;28;20682;-78
2021/05/12 08:05:24;;;;;;;4.87;1.30;;;12.90;99.90;;;;;;5057345;28;20202;-77
2021/05/12 08:07:51;;;;;;;5.10;1.70;;;13.10;99.90;;;;;;5065387;28;20210;-79
2021/05/12 08:10:19;;;;;;;4.17;1.20;;;13.20;99.90;;;;;;5071044;28;20242;-76
2021/05/12 08:12:45;;;;;;;3.45;1.45;;;13.30;99.90;;;;;;5070311;28;20237;-77
2021/05/12 08:15:12;;;;;;;4.30;1.37;;;13.10;99.90;;;;;;5069473;28;20230;-74
2021/05/12 08:17:39;;;;;;;3.53;1.47;;;13.10;99.90;;;;;;5070375;28;20208;-73
2021/05/12 08:20:07;;;;;;;3.67;1.50;;;13.50;99.90;;;;;;5064947;28;20233;-78
2021/05/12 08:22:34;;;;;;;5.45;1.40;;;13.70;99.90;;;;;;5061678;28;20221;-76
2021/05/12 08:25:00;;;;;;;4.13;1.48;;;14.10;99.90;;;;;;5061166;28;20296;-76
2021/05/12 08:27:27;;;;;;;3.60;0.90;;;14.50;99.90;;;;;;5059573;28;20260;-78
2021/05/12 08:29:56;;;;;;;3.88;1.63;;;14.50;99.90;;;;;;5062514;28;20221;-74
2021/05/12 08:32:22;;;;;;;4.32;1.73;;;14.70;99.90;;;;;;5061833;28;20216;-79
2021/05/12 08:34:49;;;;;;;3.33;1.17;;;15.00;99.90;;;;;;5070394;28;20206;-78
2021/05/12 08:37:15;;;;;;;4.72;1.42;;;15.60;99.90;;;;;;5070059;28;20202;-77
2021/05/12 08:39:41;;;;;;;4.68;1.40;;;16.10;99.90;;;;;;5070454;28;20283;-79
2021/05/12 08:42:09;;;;;;;6.50;2.10;;;16.00;99.90;;;;;;5067861;28;20203;-81
2021/05/12 08:44:36;;;;;;;3.35;1.17;;;15.30;99.90;;;;;;5070025;28;20207;-81
2021/05/12 08:47:03;;;;;;;2.85;1.27;;;15.20;99.90;;;;;;5069947;28;20198;-76
2021/05/12 08:49:33;;;;;;;2.00;1.30;;;14.90;99.90;;;;;;5064461;28;20673;-79
2021/05/12 08:52:02;;;;;;;3.13;1.30;;;14.70;99.90;;;;;;5069735;28;20582;-78
2021/05/12 08:54:29;;;;;;;5.28;1.42;;;14.70;99.90;;;;;;5070082;28;20621;-77
2021/05/12 08:56:56;;;;;;;4.35;2.72;;;15.10;99.90;;;;;;5057963;28;20705;-76
2021/05/12 08:59:22;;;;;;;4.15;1.38;;;15.20;99.90;;;;;;5061478;28;20775;-74
2021/05/12 09:01:50;;;;;;;2.08;1.17;;;15.20;99.90;;;;;;5058986;28;20207;-77
2021/05/12 09:04:16;;;;;;;6.15;1.25;;;15.40;99.90;;;;;;5059474;28;20198;-76
2021/05/12 09:06:43;;;;;;;2.67;1.42;;;15.40;99.90;;;;;;5063227;28;20281;-74
2021/05/12 09:09:09;;;;;;;3.30;1.45;;;15.90;99.90;;;;;;5062457;28;20572;-74
2021/05/12 09:11:36;;;;;;;2.15;1.27;;;16.20;99.90;;;;;;5059480;28;20203;-73
2021/05/12 09:14:03;;;;;;;7.35;2.10;;;16.00;99.90;;;;;;5060492;28;20213;-75
2021/05/12 09:16:31;;;;;;;2.55;1.20;;;15.90;99.90;;;;;;5068474;28;20206;-74
2021/05/12 09:19:04;;;;;;;2.55;1.77;;;15.80;99.90;;;;;;5070152;28;20234;-74
2021/05/12 09:21:48;;;;;;;3.55;1.73;;;16.20;99.90;;;;;;5056145;28;20210;-74
2021/05/12 09:24:25;;;;;;;4.30;1.08;;;16.40;99.90;;;;;;5071883;28;20210;-73
2021/05/12 09:26:53;;;;;;;5.88;1.90;;;16.30;99.90;;;;;;5063741;28;20197;-73
2021/05/12 09:29:24;;;;;;;3.20;1.10;;;16.60;99.90;;;;;;5073590;28;20206;-73
2021/05/12 09:31:51;;;;;;;4.20;1.55;;;16.80;99.90;;;;;;5072740;28;20213;-72
2021/05/12 09:34:19;;;;;;;3.92;1.35;;;17.00;99.90;;;;;;5067749;28;20198;-76
2021/05/12 09:36:45;;;;;;;6.97;1.48;;;17.30;99.90;;;;;;5068169;28;20210;-77
2021/05/12 09:39:14;;;;;;;4.63;1.92;;;17.50;99.90;;;;;;5057892;28;20288;-76
2021/05/12 09:41:42;;;;;;;3.10;1.58;;;18.30;99.90;;;;;;5073238;28;20213;-73
2021/05/12 09:44:10;;;;;;;5.32;0.98;;;18.20;99.90;;;;;;5066035;28;20213;-74
2021/05/12 09:46:37;;;;;;;2.22;1.25;;;18.00;99.90;;;;;;5061909;28;20235;-73
2021/05/12 09:49:13;;;;;;;4.22;1.58;;;18.20;99.90;;;;;;5070598;28;20215;-75
2021/05/12 09:51:45;;;;;;;2.35;1.20;;;18.60;99.90;;;;;;5062660;28;20653;-75
2021/05/12 09:54:17;;;;;;;4.30;1.05;;;18.90;99.90;;;;;;5067663;28;20302;-75
2021/05/12 09:56:46;;;;;;;3.38;1.70;;;18.00;99.90;;;;;;5060388;28;20289;-76
2021/05/12 09:59:18;;;;;;;3.38;0.95;;;18.20;99.90;;;;;;5066226;28;20230;-77
2021/05/12 10:01:50;;;;;;;2.45;1.38;;;19.80;99.90;;;;;;5063615;28;20587;-74
2021/05/12 10:04:36;;;;;;;1.98;1.00;;;23.20;99.90;;;;;;5069417;28;20210;-76
2021/05/12 10:07:14;;;;;;;2.40;1.25;;;23.90;99.90;;;;;;5069568;28;20237;-76
2021/05/12 10:09:41;;;;;;;1.80;1.17;;;21.40;99.90;;;;;;5062230;28;20305;-75
2021/05/12 10:12:13;;;;;;;1.45;1.02;;;23.10;99.90;;;;;;5069477;28;20206;-76
2021/05/12 10:14:41;;;;;;;2.03;1.30;;;23.30;99.90;;;;;;5064354;28;20210;-75
2021/05/12 10:17:10;;;;;;;1.08;0.82;;;24.20;99.90;;;;;;5062345;28;20234;-77
2021/05/12 10:19:37;;;;;;;3.58;1.17;;;25.00;99.90;;;;;;5067437;28;20281;-76
2021/05/12 10:22:05;;;;;;;1.73;1.00;;;26.40;99.90;;;;;;5070570;28;20202;-77
2021/05/12 10:24:34;;;;;;;1.60;1.45;;;25.60;99.90;;;;;;5066414;28;20236;-75
2021/05/12 10:27:03;;;;;;;2.70;1.30;;;25.90;99.90;;;;;;5064438;28;20202;-76
2021/05/12 10:29:32;;;;;;;1.95;1.50;;;22.50;99.90;;;;;;5064945;28;20210;-74
2021/05/12 10:31:58;;;;;;;2.58;1.10;;;21.00;99.90;;;;;;5068420;28;20199;-73
2021/05/12 10:34:43;;;;;;;1.48;0.93;;;19.70;99.90;;;;;;5062656;28;20203;-74
2021/05/12 10:37:24;;;;;;;2.25;1.25;;;19.40;99.90;;;;;;5060091;28;20674;-74
2021/05/12 10:39:59;;;;;;;1.58;1.20;;;19.10;99.90;;;;;;5060064;28;20641;-73
2021/05/12 10:42:55;;;;;;;1.25;0.90;;;19.40;99.90;;;;;;5064501;28;20371;-74
2021/05/12 10:45:50;;;;;;;1.90;0.90;;;19.50;99.90;;;;;;5072309;28;20213;-75
2021/05/12 10:48:43;;;;;;;3.72;1.50;;;19.80;99.90;;;;;;5061253;28;20206;-75
2021/05/12 10:51:27;;;;;;;2.13;0.95;;;20.00;99.90;;;;;;5071539;28;20534;-76
2021/05/12 10:53:56;;;;;;;1.70;0.93;;;20.10;99.90;;;;;;5071906;28;20218;-74
2021/05/12 10:56:33;;;;;;;2.20;1.02;;;20.50;99.90;;;;;;5071868;28;20198;-73
2021/05/12 10:59:00;;;;;;;2.75;0.73;;;20.50;99.90;;;;;;5071364;28;20213;-74
2021/05/12 11:01:32;;;;;;;2.35;1.10;;;20.00;99.90;;;;;;5070347;28;20202;-74
2021/05/12 11:04:05;;;;;;;0.82;0.82;;;20.20;99.90;;;;;;5064354;28;20202;-74
2021/05/12 11:07:00;;;;;;;1.13;0.80;;;20.60;99.90;;;;;;5057644;28;20202;-73
2021/05/12 11:09:45;;;;;;;0.73;0.70;;;20.40;99.90;;;;;;5062768;28;20673;-73
2021/05/12 11:12:15;;;;;;;0.70;0.70;;;20.20;99.90;;;;;;5060087;28;20786;-75
2021/05/12 11:14:54;;;;;;;1.35;1.00;;;20.40;99.90;;;;;;5056884;28;20211;-75
2021/05/12 11:17:22;;;;;;;1.67;0.50;;;20.70;99.90;;;;;;5070337;28;20210;-75
2021/05/12 11:19:51;;;;;;;1.48;0.73;;;20.80;99.90;;;;;;5069464;28;20643;-74
2021/05/12 11:22:36;;;;;;;1.00;0.90;;;21.10;99.90;;;;;;5061303;28;20203;-74
2021/05/12 11:25:08;;;;;;;0.93;0.75;;;21.30;99.90;;;;;;5060126;28;20314;-74
2021/05/12 11:27:54;;;;;;;0.90;0.85;;;20.90;99.90;;;;;;5059327;28;20275;-74
2021/05/12 11:33:05;;;;;;;3.92;0.93;;;21.60;99.90;;;;;;5069098;28;20280;-74
2021/05/12 11:35:32;;;;;;;0.80;0.60;;;22.00;99.90;;;;;;5070556;28;20210;-74
2021/05/12 11:37:59;;;;;;;4.43;1.05;;;22.00;99.90;;;;;;5070649;28;20244;-75
2021/05/12 11:40:31;;;;;;;2.15;0.70;;;21.80;99.90;;;;;;5071114;28;20614;-75
2021/05/12 11:42:57;;;;;;;1.00;0.90;;;21.30;99.90;;;;;;5069502;28;20287;-76
2021/05/12 11:45:25;;;;;;;1.88;0.88;;;21.30;99.90;;;;;;5071005;28;20583;-73
2021/05/12 11:47:59;;;;;;;3.72;1.00;;;21.30;99.90;;;;;;5070238;28;20206;-73
2021/05/12 11:50:27;;;;;;;2.25;0.95;;;21.60;99.90;;;;;;5070858;28;20248;-75
2021/05/12 11:52:53;;;;;;;3.60;1.38;;;21.40;99.90;;;;;;5070408;28;20206;-76
2021/05/12 11:55:22;;;;;;;2.45;1.05;;;21.40;99.90;;;;;;5071148;28;20229;-73
2021/05/12 11:57:51;;;;;;;1.15;0.80;;;21.00;99.90;;;;;;5066361;28;20677;-76
2021/05/12 12:00:21;;;;;;;0.98;0.90;;;21.10;99.90;;;;;;5066267;28;20321;-78
2021/05/12 12:02:58;;;;;;;2.60;1.10;;;21.50;99.90;;;;;;5066170;28;20210;-77
2021/05/12 12:05:34;;;;;;;1.45;0.77;;;22.00;99.90;;;;;;5062823;28;20230;-74
2021/05/12 12:08:11;;;;;;;0.85;0.85;;;22.20;99.90;;;;;;5063798;28;20640;-75
2021/05/12 12:10:38;;;;;;;1.48;1.30;;;21.80;99.90;;;;;;5068896;28;20626;-74
2021/05/12 12:13:09;;;;;;;4.15;0.90;;;20.50;99.90;;;;;;5066850;28;20243;-75
2021/05/12 12:15:39;;;;;;;3.03;1.75;;;20.50;99.90;;;;;;5068367;28;20681;-76
2021/05/12 12:18:05;;;;;;;2.50;0.75;;;21.20;99.90;;;;;;5063431;28;20741;-75
2021/05/12 12:20:33;;;;;;;1.98;0.95;;;21.20;99.90;;;;;;5065572;28;20237;-73
2021/05/12 12:23:01;;;;;;;3.58;1.10;;;21.60;99.90;;;;;;5062070;28;20233;-75
2021/05/12 12:25:33;;;;;;;0.88;0.55;;;21.70;99.90;;;;;;5056713;28;20697;-75
2021/05/12 12:28:00;;;;;;;0.77;0.63;;;21.20;99.90;;;;;;5069477;28;20210;-74
2021/05/12 12:30:28;;;;;;;7.28;1.58;;;21.10;99.90;;;;;;5055148;28;20210;-74
2021/05/12 12:32:54;;;;;;;2.67;0.85;;;21.50;99.90;;;;;;5055673;28;20670;-74
2021/05/12 12:35:21;;;;;;;2.15;0.73;;;21.80;99.90;;;;;;5063137;28;20202;-75
2021/05/12 12:37:47;;;;;;;1.77;0.60;;;21.10;99.90;;;;;;5059002;28;20674;-74
2021/05/12 12:40:14;;;;;;;3.08;2.78;;;20.80;99.90;;;;;;5057732;28;20231;-75
2021/05/12 12:42:44;;;;;;;1.15;0.80;;;20.90;99.90;;;;;;5063413;28;20317;-74
2021/05/12 12:45:21;;;;;;;2.17;0.73;;;21.00;99.90;;;;;;5062569;28;20687;-74
2021/05/12 12:47:52;;;;;;;0.95;0.80;;;20.90;99.90;;;;;;5067995;28;20699;-75
2021/05/12 12:50:20;;;;;;;1.38;0.95;;;21.10;99.90;;;;;;5055228;28;20207;-75
2021/05/12 12:52:47;;;;;;;1.85;1.00;;;21.30;99.90;;;;;;5066834;28;20225;-75
2021/05/12 12:55:15;;;;;;;4.32;1.00;;;21.30;99.90;;;;;;5064688;28;20202;-75
2021/05/12 12:57:44;;;;;;;1.90;0.90;;;21.50;99.90;;;;;;5065733;28;20217;-75
2021/05/12 13:00:24;;;;;;;1.42;1.20;;;21.50;99.90;;;;;;5073142;28;20244;-75
2021/05/12 13:03:00;;;;;;;4.13;0.80;;;21.30;99.90;;;;;;5066303;28;20199;-75